Accueil
METAR-TAF:

METAR-TAF

Aéroports :

Orange County Airport

Montgomery, New York, États-Unis

latitude: 41-30-33N, longitude: 074-15-54W, altitude: 111 m

Observation

Le bulletin a été fait il y a 18 minutes, à 22:54 UTC
Vent 6 kt de sud
Température 26°C
Humidité 61%
Pression 1022 hPa
Visibilité: 16.1 km
Nuages fragmentés à une hauteur de 7000 ft

METAR: KMGJ 152254Z AUTO 17006KT 10SM BKN070 26/18 A3017 RMK AO2 SLP214 T02610183

Heure: 19:12 (23:12 UTC)


TAF: absent

Observations et prévisions météorologiques de plus de 4000 aéroports (messages METAR et TAF).

Les stations disponibles sont représentées par des disques jaunes et rouges sur la carte.

Passer la souris dessus pour voir le nom de la station.

Cliquer dessus pour voir les observations et prévisions météorologiques.

Pour changer de carte: cliquez sur les boutons verts avec une croix noire pour zoomer, sur le bouton vert avec un tiret pour effectuer un zoom arrière, ou sur les flèches vertes pour les cartes adjacentes.


METAR-TAF: